Accueil
METAR-TAF:

METAR-TAF

Aéroports :

Sandberg, Californie, États-Unis

latitude: 34-44-37N, longitude: 118-43-28W, altitude: 1378 m

Observation

Le bulletin a été fait il y a 26 minutes, à 07:53 UTC
Vent 17 kt de est
Température 6°C
Humidité 87%
Pression 1022 hPa
Visibilité: 6.4 km
Ciel couvert à une hauteur de 300 ft
brume

METAR: KSDB 060753Z AUTO 08017KT 4SM BR OVC003 06/04 A3017 RMK AO2 SLP203 T00560044 400830039

Heure: 00:19 (08:19 UTC)


TAF: absent

Observations et prévisions météorologiques de plus de 4000 aéroports (messages METAR et TAF).

Les stations disponibles sont représentées par des disques jaunes et rouges sur la carte.

Passer la souris dessus pour voir le nom de la station.

Cliquer dessus pour voir les observations et prévisions météorologiques.

Pour changer de carte: cliquez sur les boutons verts avec une croix noire pour zoomer, sur le bouton vert avec un tiret pour effectuer un zoom arrière, ou sur les flèches vertes pour les cartes adjacentes.


METAR-TAF: